TAF PADU
PADU 081732Z 0818/0918 20015G25KT P6SM -RA SCT025 OVC040 TEMPO 0818/0822 4SM -RA BR OVC025 FM082200 22012G22KT 1 1/2SM -RA BR OVC007 FM090200 18015G25KT 2SM -RA BR OVC007 FM090900 21025G35KT 4SM -RA BR OVC015 FM091200 25030G40KT 4SM -RA BR OVC015 FM091400 29030G40KT 6SM -RA BR OVC025=
METAR PADU
WC PADU
WS PADU
WV PADU